createdAt,value
2019-05-10T00:00:51.467Z,9.20
2019-05-10T00:05:17.041Z,9.20
2019-05-10T00:09:17.709Z,9.20
2019-05-10T00:13:23.911Z,9.10
2019-05-10T00:17:22.914Z,9.10
2019-05-10T00:21:22.175Z,9.00
2019-05-10T00:25:20.714Z,9.10
2019-05-10T00:29:24.168Z,9.10
2019-05-10T00:33:25.745Z,9.10
2019-05-10T00:37:24.247Z,9.10
2019-05-10T00:41:27.082Z,9.20
2019-05-10T00:45:30.663Z,9.40
2019-05-10T00:49:35.602Z,9.50
2019-05-10T00:53:36.121Z,9.60
2019-05-10T00:57:44.065Z,9.70
2019-05-10T01:01:46.840Z,9.70
2019-05-10T01:06:02.269Z,9.80
2019-05-10T01:10:01.286Z,9.80
2019-05-10T01:13:59.744Z,9.70
2019-05-10T01:17:59.831Z,9.60
2019-05-10T01:22:03.318Z,9.70
2019-05-10T01:26:08.511Z,9.60
2019-05-10T01:30:10.272Z,9.60
2019-05-10T01:34:10.419Z,9.50
2019-05-10T01:38:11.982Z,9.50
2019-05-10T01:42:13.943Z,9.50
2019-05-10T01:46:26.726Z,9.50
2019-05-10T01:50:25.010Z,9.40
2019-05-10T01:54:23.485Z,9.40
2019-05-10T01:58:22.001Z,9.50
2019-05-10T02:02:21.114Z,9.50
2019-05-10T02:06:19.635Z,9.50
2019-05-10T02:10:22.786Z,9.60
2019-05-10T02:14:23.465Z,9.60
2019-05-10T02:18:21.979Z,9.60
2019-05-10T02:22:20.466Z,9.60
2019-05-10T02:26:28.131Z,9.60
2019-05-10T02:30:26.745Z,9.60
2019-05-10T02:34:33.569Z,9.60
2019-05-10T02:38:32.196Z,9.60
2019-05-10T02:42:39.344Z,9.60
2019-05-10T02:46:45.011Z,9.60
2019-05-10T02:50:47.175Z,9.60
2019-05-10T02:54:50.743Z,9.60
2019-05-10T02:59:49.286Z,9.50
2019-05-10T03:03:08.267Z,9.60
2019-05-10T03:07:09.003Z,9.60
2019-05-10T03:11:09.692Z,9.60
2019-05-10T03:15:16.941Z,9.60
2019-05-10T03:19:18.100Z,9.60
2019-05-10T03:23:17.388Z,9.60
2019-05-10T03:27:25.288Z,9.60
2019-05-10T03:31:25.536Z,9.60
2019-05-10T03:35:24.609Z,9.60
2019-05-10T03:39:23.277Z,9.60
2019-05-10T03:43:21.800Z,9.70
2019-05-10T03:47:22.776Z,9.70
2019-05-10T03:51:23.497Z,9.70
2019-05-10T03:55:24.825Z,9.60
2019-05-10T03:59:25.840Z,9.60
2019-05-10T04:03:25.227Z,9.50
2019-05-10T04:07:26.521Z,9.40
2019-05-10T04:11:25.044Z,9.40
2019-05-10T04:15:26.276Z,9.40
2019-05-10T04:19:24.820Z,9.40
2019-05-10T04:23:23.371Z,9.40
2019-05-10T04:27:31.643Z,9.40
2019-05-10T04:31:22.036Z,9.40
2019-05-10T04:35:20.644Z,9.50
2019-05-10T04:39:26.656Z,9.50
2019-05-10T04:43:28.102Z,9.40
2019-05-10T04:47:30.860Z,9.40
2019-05-10T04:51:29.406Z,9.40
2019-05-10T04:55:36.361Z,9.30
2019-05-10T04:59:41.423Z,9.30
2019-05-10T05:03:41.699Z,9.30
2019-05-10T05:07:42.351Z,9.30
2019-05-10T05:11:45.998Z,9.30
2019-05-10T05:15:48.584Z,9.30
2019-05-10T05:19:47.075Z,9.30
2019-05-10T05:23:54.076Z,9.40
2019-05-10T05:28:05.352Z,9.50
2019-05-10T05:31:53.942Z,9.50
2019-05-10T05:35:53.910Z,9.50
2019-05-10T05:39:52.447Z,9.50
2019-05-10T05:43:50.915Z,9.60
2019-05-10T05:47:49.386Z,9.50
2019-05-10T05:51:47.854Z,9.60
2019-05-10T05:55:51.148Z,9.60
2019-05-10T05:59:49.705Z,9.60
2019-05-10T06:03:49.714Z,9.60
2019-05-10T06:07:52.297Z,9.60
2019-05-10T06:11:51.057Z,9.70
2019-05-10T06:15:53.062Z,9.70
2019-05-10T06:20:01.050Z,9.90
2019-05-10T06:24:07.480Z,9.90
2019-05-10T06:28:25.738Z,10.10
2019-05-10T06:32:10.421Z,10.20
2019-05-10T06:36:10.647Z,10.40
2019-05-10T06:40:12.776Z,10.50
2019-05-10T06:44:11.315Z,10.70
2019-05-10T06:48:13.403Z,10.80
2019-05-10T06:52:16.241Z,11.20
2019-05-10T06:56:17.080Z,11.50
2019-05-10T07:00:18.883Z,11.50
2019-05-10T07:04:17.355Z,11.70
2019-05-10T07:08:20.427Z,12.00
2019-05-10T07:12:18.418Z,12.10
2019-05-10T07:16:25.593Z,12.00
2019-05-10T07:20:29.424Z,12.30
2019-05-10T07:24:37.130Z,12.70
2019-05-10T07:28:35.987Z,13.00
2019-05-10T07:32:38.260Z,12.90
2019-05-10T07:36:36.882Z,12.90
2019-05-10T07:40:35.366Z,13.20
2019-05-10T07:44:49.787Z,13.50
2019-05-10T07:48:53.824Z,13.70
2019-05-10T07:52:56.976Z,14.00
2019-05-10T07:56:59.490Z,13.80
2019-05-10T08:01:04.376Z,13.30
2019-05-10T08:05:04.844Z,12.90
2019-05-10T08:09:12.563Z,12.90
2019-05-10T08:13:25.001Z,13.20
2019-05-10T08:17:21.111Z,13.30
2019-05-10T08:21:23.878Z,13.30
2019-05-10T08:25:23.192Z,13.20
2019-05-10T08:29:24.327Z,12.90
2019-05-10T08:33:29.294Z,12.90
2019-05-10T08:37:37.381Z,13.10
2019-05-10T08:41:34.466Z,13.10
2019-05-10T08:45:32.945Z,13.00
2019-05-10T08:49:46.683Z,13.10
2019-05-10T08:53:42.111Z,12.90
2019-05-10T08:57:44.351Z,12.90
2019-05-10T09:01:50.906Z,13.40
2019-05-10T09:05:47.952Z,13.30
2019-05-10T09:09:55.878Z,14.30
2019-05-10T09:13:57.775Z,14.60
2019-05-10T09:18:07.390Z,14.10
2019-05-10T09:22:02.024Z,13.60
2019-05-10T09:26:16.456Z,13.40
2019-05-10T09:30:21.994Z,13.10
2019-05-10T09:34:27.303Z,12.70
2019-05-10T09:38:33.715Z,12.90
2019-05-10T09:42:37.774Z,13.10
2019-05-10T09:46:43.569Z,13.40
2019-05-10T09:50:48.806Z,13.20
2019-05-10T09:54:56.583Z,12.90
2019-05-10T09:58:58.133Z,12.90
2019-05-10T10:03:01.583Z,13.00
2019-05-10T10:06:58.147Z,13.20
2019-05-10T10:11:10.434Z,13.20
2019-05-10T10:15:01.654Z,13.20
2019-05-10T10:19:00.241Z,13.30
2019-05-10T10:22:58.706Z,13.40
2019-05-10T10:31:29.626Z,13.90
2019-05-10T10:35:26.964Z,14.60
2019-05-10T10:39:27.706Z,15.20
2019-05-10T10:43:27.322Z,15.20
2019-05-10T10:47:32.363Z,15.20
2019-05-10T10:51:34.447Z,15.70
2019-05-10T10:55:36.606Z,16.30
2019-05-10T10:59:37.202Z,16.60
2019-05-10T11:03:38.448Z,16.40
2019-05-10T11:07:44.313Z,16.40
2019-05-10T11:11:44.460Z,16.30
2019-05-10T11:15:42.225Z,15.60
2019-05-10T11:19:44.612Z,14.70
2019-05-10T11:23:42.578Z,14.10
2019-05-10T11:27:53.937Z,13.90
2019-05-10T11:32:14.390Z,13.80
2019-05-10T11:35:57.765Z,13.80
2019-05-10T11:40:03.749Z,14.10
2019-05-10T11:44:08.833Z,14.00
2019-05-10T11:48:14.905Z,13.70
2019-05-10T11:52:12.368Z,13.50
2019-05-10T11:56:13.981Z,13.30
2019-05-10T12:00:24.649Z,13.10
2019-05-10T12:04:22.177Z,12.90
2019-05-10T12:08:13.208Z,12.80
2019-05-10T12:12:13.883Z,12.60
2019-05-10T12:16:21.400Z,12.60
2019-05-10T12:20:26.722Z,12.80
2019-05-10T12:24:39.364Z,13.50
2019-05-10T12:28:40.972Z,14.00
2019-05-10T12:32:55.127Z,14.20
2019-05-10T12:36:41.197Z,14.20
2019-05-10T12:40:41.343Z,14.30
2019-05-10T12:44:48.059Z,14.60
2019-05-10T12:48:42.713Z,14.50
2019-05-10T12:52:50.590Z,14.10
2019-05-10T12:56:52.672Z,13.90
2019-05-10T13:00:53.298Z,13.80
2019-05-10T13:04:52.510Z,14.20
2019-05-10T13:09:02.047Z,14.20
2019-05-10T13:13:00.609Z,14.60
2019-05-10T13:17:03.847Z,15.10
2019-05-10T13:21:19.651Z,15.20
2019-05-10T13:25:16.795Z,15.00
2019-05-10T13:29:16.779Z,14.90
2019-05-10T13:33:27.974Z,15.30
2019-05-10T13:37:24.723Z,15.80
2019-05-10T13:41:24.047Z,16.00
2019-05-10T13:45:25.811Z,16.50
2019-05-10T13:49:24.860Z,16.90
2019-05-10T13:53:28.598Z,17.00
2019-05-10T13:57:27.802Z,17.20
2019-05-10T14:01:27.070Z,16.70
2019-05-10T14:05:26.139Z,16.70
2019-05-10T14:09:24.748Z,17.00
2019-05-10T14:13:29.346Z,16.90
2019-05-10T14:17:30.091Z,16.80
2019-05-10T14:21:32.639Z,16.80
2019-05-10T14:25:36.679Z,16.90
2019-05-10T14:29:36.807Z,16.30
2019-05-10T14:33:34.861Z,15.60
2019-05-10T14:37:36.545Z,15.30
2019-05-10T14:41:39.836Z,16.00
2019-05-10T14:45:38.778Z,16.30
2019-05-10T14:49:42.294Z,15.80
2019-05-10T14:53:37.477Z,15.60
2019-05-10T14:57:43.565Z,15.10
2019-05-10T15:01:45.432Z,14.50
2019-05-10T15:05:49.115Z,13.40
2019-05-10T15:09:44.112Z,12.60
2019-05-10T15:13:51.106Z,12.00
2019-05-10T15:17:55.140Z,11.60
2019-05-10T15:21:53.596Z,11.70
2019-05-10T15:26:03.530Z,12.20
2019-05-10T15:30:05.403Z,13.30
2019-05-10T15:34:05.358Z,14.10
2019-05-10T15:38:00.940Z,15.50
2019-05-10T15:42:04.216Z,21.00
2019-05-10T15:46:04.758Z,24.20
2019-05-10T15:50:03.887Z,25.30
2019-05-10T15:54:07.437Z,26.30
2019-05-10T15:58:08.289Z,25.00
2019-05-10T16:02:15.921Z,23.30
2019-05-10T16:06:14.382Z,21.40
2019-05-10T16:10:13.829Z,19.30
2019-05-10T16:14:15.460Z,18.40
2019-05-10T16:18:39.366Z,17.90
2019-05-10T16:22:36.234Z,17.70
2019-05-10T16:26:34.783Z,17.20
2019-05-10T16:30:36.576Z,16.90
2019-05-10T16:34:40.116Z,16.10
2019-05-10T16:38:38.139Z,15.20
2019-05-10T16:42:41.563Z,14.50
2019-05-10T16:46:43.533Z,14.00
2019-05-10T16:50:42.244Z,13.50
2019-05-10T16:54:40.899Z,13.10
2019-05-10T16:58:39.455Z,12.80
2019-05-10T17:02:45.483Z,12.60
2019-05-10T17:11:09.589Z,10.60
2019-05-10T17:15:08.653Z,10.00
2019-05-10T17:19:06.750Z,9.80
2019-05-10T17:23:11.355Z,9.80
2019-05-10T17:27:09.837Z,9.80
2019-05-10T17:31:16.150Z,9.80
2019-05-10T17:35:21.405Z,9.80
2019-05-10T17:39:32.161Z,10.00
2019-05-10T17:43:26.411Z,10.30
2019-05-10T17:47:32.270Z,10.20
2019-05-10T17:51:30.597Z,10.20
2019-05-10T17:55:37.780Z,10.40
2019-05-10T17:59:36.739Z,10.40
2019-05-10T18:03:35.242Z,10.40
2019-05-10T18:07:33.824Z,10.20
2019-05-10T18:11:36.916Z,10.20
2019-05-10T18:15:33.165Z,10.00
2019-05-10T18:19:38.874Z,9.80
2019-05-10T18:23:44.063Z,9.60
2019-05-10T18:27:42.492Z,9.50
2019-05-10T18:31:55.844Z,9.30
2019-05-10T18:35:54.628Z,9.20
2019-05-10T18:39:54.747Z,9.10
2019-05-10T18:43:55.546Z,8.90
2019-05-10T18:47:54.016Z,8.90
2019-05-10T18:51:52.954Z,8.80
2019-05-10T18:55:57.749Z,8.80
2019-05-10T18:59:56.480Z,8.80
2019-05-10T19:03:57.311Z,8.70
2019-05-10T19:08:09.851Z,8.60
2019-05-10T19:12:18.861Z,8.50
2019-05-10T19:16:31.875Z,8.40
2019-05-10T19:20:28.529Z,8.30
2019-05-10T19:24:30.560Z,8.30
2019-05-10T19:28:29.363Z,8.30
2019-05-10T19:32:28.325Z,8.20
2019-05-10T19:36:28.564Z,8.10
2019-05-10T19:40:30.964Z,8.10
2019-05-10T19:44:40.575Z,8.10
2019-05-10T19:48:35.377Z,8.10
2019-05-10T19:52:35.540Z,8.10
2019-05-10T19:56:36.547Z,8.10
2019-05-10T20:00:34.281Z,8.20
2019-05-10T20:04:42.039Z,8.20
2019-05-10T20:08:47.348Z,8.20
2019-05-10T20:12:53.711Z,8.20
2019-05-10T20:17:09.717Z,8.20
2019-05-10T20:21:12.932Z,8.20
2019-05-10T20:25:11.972Z,8.10
2019-05-10T20:29:28.259Z,8.00
2019-05-10T20:33:26.824Z,7.90
2019-05-10T20:37:38.467Z,7.90
2019-05-10T20:41:33.727Z,7.90
2019-05-10T20:45:34.897Z,7.80
2019-05-10T20:54:15.559Z,7.70
2019-05-10T20:58:16.338Z,7.70
2019-05-10T21:02:14.896Z,7.70
2019-05-10T21:06:15.212Z,7.70
2019-05-10T21:10:14.146Z,7.70
2019-05-10T21:14:34.362Z,7.80
2019-05-10T21:18:36.020Z,7.80
2019-05-10T21:22:34.487Z,7.80
2019-05-10T21:26:32.937Z,7.70
2019-05-10T21:30:32.229Z,7.70
2019-05-10T21:34:32.514Z,7.70
2019-05-10T21:38:33.443Z,7.70
2019-05-10T21:42:33.314Z,7.70
2019-05-10T21:46:31.831Z,7.70
2019-05-10T21:50:32.539Z,7.80
2019-05-10T21:54:31.057Z,7.70
2019-05-10T21:58:31.527Z,7.70
2019-05-10T22:02:32.303Z,7.70
2019-05-10T22:06:32.585Z,7.70
2019-05-10T22:10:33.178Z,7.60
2019-05-10T22:14:39.164Z,7.60
2019-05-10T22:18:42.743Z,7.60
2019-05-10T22:22:47.481Z,7.70
2019-05-10T22:26:49.705Z,7.70
2019-05-10T22:30:51.776Z,7.70
2019-05-10T22:34:50.298Z,7.80
2019-05-10T22:39:05.809Z,7.70
2019-05-10T22:42:55.502Z,7.70
2019-05-10T22:47:02.120Z,7.70
2019-05-10T22:51:01.040Z,7.70
2019-05-10T22:55:03.075Z,7.70
2019-05-10T22:59:01.658Z,7.70
2019-05-10T23:03:00.109Z,7.80
2019-05-10T23:06:58.667Z,7.70
2019-05-10T23:11:00.498Z,7.70
2019-05-10T23:15:04.404Z,7.70
2019-05-10T23:19:04.909Z,7.70
2019-05-10T23:27:08.299Z,7.70
2019-05-10T23:31:06.825Z,7.70
2019-05-10T23:35:10.368Z,7.70
2019-05-10T23:39:08.894Z,7.70
2019-05-10T23:43:07.357Z,7.70
2019-05-10T23:47:06.617Z,7.70
2019-05-10T23:51:10.583Z,7.70
2019-05-10T23:55:15.414Z,7.70
2019-05-10T23:59:16.824Z,7.70
